sensor_id;sensor_type;location;lat;lon;timestamp;P1;durP1;ratioP1;P2;durP2;ratioP2
27839;SDS011;15207;42.182;24.308;2022-08-19T00:04:01;6.30;;;5.10;;
27839;SDS011;15207;42.182;24.308;2022-08-19T00:06:29;5.40;;;4.30;;
27839;SDS011;15207;42.182;24.308;2022-08-19T00:11:22;8.85;;;4.63;;
27839;SDS011;15207;42.182;24.308;2022-08-19T00:13:47;6.63;;;5.13;;
27839;SDS011;15207;42.182;24.308;2022-08-19T00:16:15;8.40;;;4.40;;
27839;SDS011;15207;42.182;24.308;2022-08-19T00:18:44;11.05;;;4.88;;
27839;SDS011;15207;42.182;24.308;2022-08-19T00:21:09;5.80;;;4.80;;
27839;SDS011;15207;42.182;24.308;2022-08-19T00:23:35;6.97;;;5.17;;
27839;SDS011;15207;42.182;24.308;2022-08-19T00:26:02;9.55;;;4.80;;
27839;SDS011;15207;42.182;24.308;2022-08-19T00:28:29;7.67;;;4.90;;
27839;SDS011;15207;42.182;24.308;2022-08-19T00:30:55;10.20;;;5.50;;
27839;SDS011;15207;42.182;24.308;2022-08-19T00:33:21;7.55;;;5.53;;
27839;SDS011;15207;42.182;24.308;2022-08-19T00:35:47;6.28;;;5.40;;
27839;SDS011;15207;42.182;24.308;2022-08-19T00:38:13;9.50;;;5.70;;
27839;SDS011;15207;42.182;24.308;2022-08-19T00:40:39;10.40;;;5.75;;
27839;SDS011;15207;42.182;24.308;2022-08-19T00:43:09;7.47;;;5.77;;
27839;SDS011;15207;42.182;24.308;2022-08-19T00:45:38;7.15;;;5.80;;
27839;SDS011;15207;42.182;24.308;2022-08-19T00:48:06;6.40;;;5.30;;
27839;SDS011;15207;42.182;24.308;2022-08-19T00:50:32;8.00;;;5.70;;
27839;SDS011;15207;42.182;24.308;2022-08-19T00:52:59;8.60;;;5.10;;
27839;SDS011;15207;42.182;24.308;2022-08-19T00:58:01;6.57;;;5.10;;
27839;SDS011;15207;42.182;24.308;2022-08-19T01:03:00;13.80;;;6.40;;
27839;SDS011;15207;42.182;24.308;2022-08-19T01:05:26;9.30;;;5.50;;
27839;SDS011;15207;42.182;24.308;2022-08-19T01:07:54;12.40;;;6.30;;
27839;SDS011;15207;42.182;24.308;2022-08-19T01:10:24;6.15;;;5.55;;
27839;SDS011;15207;42.182;24.308;2022-08-19T01:12:53;7.20;;;4.80;;
27839;SDS011;15207;42.182;24.308;2022-08-19T01:15:22;5.50;;;4.90;;
27839;SDS011;15207;42.182;24.308;2022-08-19T01:17:54;6.90;;;5.40;;
27839;SDS011;15207;42.182;24.308;2022-08-19T01:20:23;9.60;;;5.10;;
27839;SDS011;15207;42.182;24.308;2022-08-19T01:22:51;7.50;;;4.80;;
27839;SDS011;15207;42.182;24.308;2022-08-19T01:27:46;7.70;;;5.25;;
27839;SDS011;15207;42.182;24.308;2022-08-19T01:30:18;8.68;;;4.90;;
27839;SDS011;15207;42.182;24.308;2022-08-19T01:32:47;7.18;;;5.00;;
27839;SDS011;15207;42.182;24.308;2022-08-19T01:35:14;12.05;;;4.95;;
27839;SDS011;15207;42.182;24.308;2022-08-19T01:37:49;7.60;;;5.10;;
27839;SDS011;15207;42.182;24.308;2022-08-19T01:40:18;17.60;;;6.20;;
27839;SDS011;15207;42.182;24.308;2022-08-19T01:42:48;12.55;;;6.03;;
27839;SDS011;15207;42.182;24.308;2022-08-19T01:45:15;7.80;;;5.00;;
27839;SDS011;15207;42.182;24.308;2022-08-19T01:47:42;10.75;;;5.35;;
27839;SDS011;15207;42.182;24.308;2022-08-19T01:50:08;6.60;;;4.90;;
27839;SDS011;15207;42.182;24.308;2022-08-19T01:52:36;8.80;;;4.90;;
27839;SDS011;15207;42.182;24.308;2022-08-19T01:55:04;10.88;;;4.75;;
27839;SDS011;15207;42.182;24.308;2022-08-19T01:57:31;7.15;;;4.70;;
27839;SDS011;15207;42.182;24.308;2022-08-19T01:59:57;9.60;;;4.90;;
27839;SDS011;15207;42.182;24.308;2022-08-19T02:02:22;9.35;;;4.50;;
27839;SDS011;15207;42.182;24.308;2022-08-19T02:04:48;7.30;;;4.80;;
27839;SDS011;15207;42.182;24.308;2022-08-19T02:07:15;8.38;;;4.97;;
27839;SDS011;15207;42.182;24.308;2022-08-19T02:09:43;8.75;;;4.70;;
27839;SDS011;15207;42.182;24.308;2022-08-19T02:12:09;6.18;;;4.70;;
27839;SDS011;15207;42.182;24.308;2022-08-19T02:14:35;6.50;;;4.60;;
27839;SDS011;15207;42.182;24.308;2022-08-19T02:19:27;11.20;;;5.15;;
27839;SDS011;15207;42.182;24.308;2022-08-19T02:21:52;8.87;;;5.03;;
27839;SDS011;15207;42.182;24.308;2022-08-19T02:24:18;9.20;;;5.10;;
27839;SDS011;15207;42.182;24.308;2022-08-19T02:26:44;10.90;;;6.10;;
27839;SDS011;15207;42.182;24.308;2022-08-19T02:29:09;9.60;;;6.10;;
27839;SDS011;15207;42.182;24.308;2022-08-19T02:31:35;10.60;;;5.85;;
27839;SDS011;15207;42.182;24.308;2022-08-19T02:36:26;9.68;;;6.70;;
27839;SDS011;15207;42.182;24.308;2022-08-19T02:38:53;7.88;;;5.95;;
27839;SDS011;15207;42.182;24.308;2022-08-19T02:41:20;10.65;;;6.20;;
27839;SDS011;15207;42.182;24.308;2022-08-19T02:43:48;11.40;;;6.30;;
27839;SDS011;15207;42.182;24.308;2022-08-19T02:46:18;13.00;;;6.23;;
27839;SDS011;15207;42.182;24.308;2022-08-19T02:48:49;8.45;;;6.10;;
27839;SDS011;15207;42.182;24.308;2022-08-19T03:00:59;12.95;;;6.25;;
27839;SDS011;15207;42.182;24.308;2022-08-19T03:03:24;12.15;;;7.05;;
27839;SDS011;15207;42.182;24.308;2022-08-19T03:05:50;14.60;;;6.55;;
27839;SDS011;15207;42.182;24.308;2022-08-19T03:08:17;19.30;;;6.85;;
27839;SDS011;15207;42.182;24.308;2022-08-19T03:10:44;13.93;;;7.00;;
27839;SDS011;15207;42.182;24.308;2022-08-19T03:13:15;11.15;;;7.20;;
27839;SDS011;15207;42.182;24.308;2022-08-19T03:15:42;18.25;;;8.10;;
27839;SDS011;15207;42.182;24.308;2022-08-19T03:18:10;21.50;;;8.40;;
27839;SDS011;15207;42.182;24.308;2022-08-19T03:23:09;12.90;;;6.60;;
27839;SDS011;15207;42.182;24.308;2022-08-19T03:25:41;15.93;;;7.00;;
27839;SDS011;15207;42.182;24.308;2022-08-19T03:28:10;10.30;;;6.80;;
27839;SDS011;15207;42.182;24.308;2022-08-19T03:30:37;17.00;;;7.70;;
27839;SDS011;15207;42.182;24.308;2022-08-19T03:33:05;13.55;;;8.40;;
27839;SDS011;15207;42.182;24.308;2022-08-19T03:35:32;15.13;;;7.63;;
27839;SDS011;15207;42.182;24.308;2022-08-19T03:38:01;21.33;;;8.67;;
27839;SDS011;15207;42.182;24.308;2022-08-19T03:40:28;18.75;;;7.82;;
27839;SDS011;15207;42.182;24.308;2022-08-19T03:42:55;17.60;;;7.85;;
27839;SDS011;15207;42.182;24.308;2022-08-19T03:45:22;17.30;;;8.20;;
27839;SDS011;15207;42.182;24.308;2022-08-19T03:47:48;13.73;;;7.25;;
27839;SDS011;15207;42.182;24.308;2022-08-19T03:50:14;22.27;;;8.27;;
27839;SDS011;15207;42.182;24.308;2022-08-19T03:52:39;25.00;;;9.10;;
27839;SDS011;15207;42.182;24.308;2022-08-19T03:55:05;26.50;;;9.20;;
27839;SDS011;15207;42.182;24.308;2022-08-19T04:02:24;17.85;;;8.25;;
27839;SDS011;15207;42.182;24.308;2022-08-19T04:04:49;17.30;;;7.45;;
27839;SDS011;15207;42.182;24.308;2022-08-19T04:07:20;16.75;;;7.95;;
27839;SDS011;15207;42.182;24.308;2022-08-19T04:09:46;13.80;;;7.70;;
27839;SDS011;15207;42.182;24.308;2022-08-19T04:12:12;18.00;;;8.32;;
27839;SDS011;15207;42.182;24.308;2022-08-19T04:17:06;17.30;;;7.20;;
27839;SDS011;15207;42.182;24.308;2022-08-19T04:19:32;14.02;;;7.57;;
27839;SDS011;15207;42.182;24.308;2022-08-19T04:22:00;16.50;;;7.40;;
27839;SDS011;15207;42.182;24.308;2022-08-19T04:24:26;10.80;;;7.30;;
27839;SDS011;15207;42.182;24.308;2022-08-19T04:26:52;19.60;;;8.40;;
27839;SDS011;15207;42.182;24.308;2022-08-19T04:29:22;20.90;;;10.50;;
27839;SDS011;15207;42.182;24.308;2022-08-19T04:31:50;31.50;;;14.40;;
27839;SDS011;15207;42.182;24.308;2022-08-19T04:34:19;39.53;;;14.13;;
27839;SDS011;15207;42.182;24.308;2022-08-19T04:36:47;31.80;;;14.75;;
27839;SDS011;15207;42.182;24.308;2022-08-19T04:39:14;37.60;;;16.35;;
27839;SDS011;15207;42.182;24.308;2022-08-19T04:46:51;25.10;;;11.27;;
27839;SDS011;15207;42.182;24.308;2022-08-19T04:49:17;37.13;;;11.57;;
27839;SDS011;15207;42.182;24.308;2022-08-19T04:51:47;26.33;;;10.68;;
27839;SDS011;15207;42.182;24.308;2022-08-19T04:54:14;33.00;;;10.50;;
27839;SDS011;15207;42.182;24.308;2022-08-19T04:56:42;14.90;;;7.55;;
27839;SDS011;15207;42.182;24.308;2022-08-19T04:59:08;23.80;;;8.95;;
27839;SDS011;15207;42.182;24.308;2022-08-19T05:01:35;12.80;;;6.72;;
27839;SDS011;15207;42.182;24.308;2022-08-19T05:06:29;19.65;;;7.25;;
27839;SDS011;15207;42.182;24.308;2022-08-19T05:08:58;19.80;;;6.65;;
27839;SDS011;15207;42.182;24.308;2022-08-19T05:11:25;15.80;;;6.20;;
27839;SDS011;15207;42.182;24.308;2022-08-19T05:13:53;14.20;;;6.35;;
27839;SDS011;15207;42.182;24.308;2022-08-19T05:16:20;12.80;;;5.60;;
27839;SDS011;15207;42.182;24.308;2022-08-19T05:18:47;14.83;;;6.00;;
27839;SDS011;15207;42.182;24.308;2022-08-19T05:21:32;13.67;;;6.00;;
27839;SDS011;15207;42.182;24.308;2022-08-19T05:24:17;18.75;;;5.88;;
27839;SDS011;15207;42.182;24.308;2022-08-19T05:26:44;9.70;;;5.95;;
27839;SDS011;15207;42.182;24.308;2022-08-19T05:29:13;14.33;;;5.90;;
27839;SDS011;15207;42.182;24.308;2022-08-19T05:31:40;8.30;;;5.22;;
27839;SDS011;15207;42.182;24.308;2022-08-19T05:34:05;9.40;;;5.25;;
27839;SDS011;15207;42.182;24.308;2022-08-19T05:36:36;10.90;;;5.40;;
27839;SDS011;15207;42.182;24.308;2022-08-19T05:39:06;10.10;;;5.30;;
27839;SDS011;15207;42.182;24.308;2022-08-19T05:41:33;8.18;;;5.05;;
27839;SDS011;15207;42.182;24.308;2022-08-19T05:44:03;8.40;;;5.80;;
27839;SDS011;15207;42.182;24.308;2022-08-19T05:46:34;8.98;;;6.13;;
27839;SDS011;15207;42.182;24.308;2022-08-19T05:49:00;9.80;;;4.95;;
27839;SDS011;15207;42.182;24.308;2022-08-19T05:51:26;8.70;;;5.00;;
27839;SDS011;15207;42.182;24.308;2022-08-19T05:53:51;11.50;;;4.90;;
27839;SDS011;15207;42.182;24.308;2022-08-19T05:56:17;10.95;;;5.20;;
27839;SDS011;15207;42.182;24.308;2022-08-19T05:58:43;6.80;;;4.70;;
27839;SDS011;15207;42.182;24.308;2022-08-19T06:01:17;7.65;;;4.90;;
27839;SDS011;15207;42.182;24.308;2022-08-19T06:03:43;7.60;;;5.20;;
27839;SDS011;15207;42.182;24.308;2022-08-19T06:06:10;11.60;;;5.10;;
27839;SDS011;15207;42.182;24.308;2022-08-19T06:08:37;10.50;;;5.35;;
27839;SDS011;15207;42.182;24.308;2022-08-19T06:13:39;12.77;;;5.43;;
27839;SDS011;15207;42.182;24.308;2022-08-19T06:16:05;9.10;;;5.30;;
27839;SDS011;15207;42.182;24.308;2022-08-19T06:18:30;8.20;;;5.50;;
27839;SDS011;15207;42.182;24.308;2022-08-19T06:23:21;8.20;;;4.90;;
27839;SDS011;15207;42.182;24.308;2022-08-19T06:25:47;8.55;;;5.00;;
27839;SDS011;15207;42.182;24.308;2022-08-19T06:28:12;8.85;;;5.05;;
27839;SDS011;15207;42.182;24.308;2022-08-19T06:30:38;5.90;;;4.80;;
27839;SDS011;15207;42.182;24.308;2022-08-19T06:33:04;7.43;;;4.93;;
27839;SDS011;15207;42.182;24.308;2022-08-19T06:35:29;12.40;;;5.90;;
27839;SDS011;15207;42.182;24.308;2022-08-19T06:37:56;9.90;;;5.40;;
27839;SDS011;15207;42.182;24.308;2022-08-19T06:40:21;13.20;;;5.25;;
27839;SDS011;15207;42.182;24.308;2022-08-19T06:42:48;8.50;;;5.20;;
27839;SDS011;15207;42.182;24.308;2022-08-19T06:45:13;6.20;;;5.20;;
27839;SDS011;15207;42.182;24.308;2022-08-19T06:47:39;12.20;;;5.80;;
27839;SDS011;15207;42.182;24.308;2022-08-19T06:50:05;8.45;;;4.90;;
27839;SDS011;15207;42.182;24.308;2022-08-19T06:52:34;6.70;;;5.10;;
27839;SDS011;15207;42.182;24.308;2022-08-19T06:55:01;9.00;;;4.65;;
27839;SDS011;15207;42.182;24.308;2022-08-19T06:57:27;8.40;;;5.10;;
27839;SDS011;15207;42.182;24.308;2022-08-19T06:59:57;10.30;;;4.80;;
27839;SDS011;15207;42.182;24.308;2022-08-19T07:02:25;14.10;;;5.00;;
27839;SDS011;15207;42.182;24.308;2022-08-19T07:04:51;6.85;;;5.35;;
27839;SDS011;15207;42.182;24.308;2022-08-19T07:07:18;11.88;;;4.97;;
27839;SDS011;15207;42.182;24.308;2022-08-19T07:09:45;12.27;;;5.55;;
27839;SDS011;15207;42.182;24.308;2022-08-19T07:12:11;10.60;;;4.80;;
27839;SDS011;15207;42.182;24.308;2022-08-19T07:14:39;11.90;;;5.10;;
27839;SDS011;15207;42.182;24.308;2022-08-19T07:17:09;6.90;;;5.00;;
27839;SDS011;15207;42.182;24.308;2022-08-19T07:19:37;10.40;;;4.90;;
27839;SDS011;15207;42.182;24.308;2022-08-19T07:22:06;8.70;;;4.90;;
27839;SDS011;15207;42.182;24.308;2022-08-19T07:24:32;8.10;;;4.30;;
27839;SDS011;15207;42.182;24.308;2022-08-19T07:27:00;7.80;;;4.50;;
27839;SDS011;15207;42.182;24.308;2022-08-19T07:29:29;6.75;;;4.75;;
27839;SDS011;15207;42.182;24.308;2022-08-19T07:31:58;9.05;;;4.90;;
27839;SDS011;15207;42.182;24.308;2022-08-19T07:34:24;6.60;;;4.80;;
27839;SDS011;15207;42.182;24.308;2022-08-19T07:36:51;7.20;;;4.85;;
27839;SDS011;15207;42.182;24.308;2022-08-19T07:39:19;5.35;;;4.25;;
27839;SDS011;15207;42.182;24.308;2022-08-19T07:41:47;5.80;;;4.70;;
27839;SDS011;15207;42.182;24.308;2022-08-19T07:44:13;8.07;;;4.70;;
27839;SDS011;15207;42.182;24.308;2022-08-19T07:46:42;7.70;;;4.60;;
27839;SDS011;15207;42.182;24.308;2022-08-19T07:49:10;7.43;;;4.60;;
27839;SDS011;15207;42.182;24.308;2022-08-19T07:51:42;8.20;;;4.70;;
27839;SDS011;15207;42.182;24.308;2022-08-19T07:54:09;7.10;;;4.70;;
27839;SDS011;15207;42.182;24.308;2022-08-19T07:56:36;8.33;;;4.30;;
27839;SDS011;15207;42.182;24.308;2022-08-19T07:59:02;5.70;;;4.30;;
27839;SDS011;15207;42.182;24.308;2022-08-19T08:01:28;7.35;;;4.30;;
27839;SDS011;15207;42.182;24.308;2022-08-19T08:03:54;9.13;;;4.60;;
27839;SDS011;15207;42.182;24.308;2022-08-19T08:06:40;9.15;;;4.20;;
27839;SDS011;15207;42.182;24.308;2022-08-19T08:09:33;7.70;;;4.47;;
27839;SDS011;15207;42.182;24.308;2022-08-19T08:12:09;5.10;;;3.80;;
27839;SDS011;15207;42.182;24.308;2022-08-19T08:14:49;6.20;;;3.67;;
27839;SDS011;15207;42.182;24.308;2022-08-19T08:17:18;5.55;;;3.50;;
27839;SDS011;15207;42.182;24.308;2022-08-19T08:22:13;5.95;;;4.10;;
27839;SDS011;15207;42.182;24.308;2022-08-19T08:25:16;7.78;;;4.18;;
27839;SDS011;15207;42.182;24.308;2022-08-19T08:27:44;7.90;;;4.00;;
27839;SDS011;15207;42.182;24.308;2022-08-19T08:30:15;4.20;;;3.80;;
27839;SDS011;15207;42.182;24.308;2022-08-19T08:32:46;11.35;;;4.00;;
27839;SDS011;15207;42.182;24.308;2022-08-19T08:35:15;10.15;;;4.30;;
27839;SDS011;15207;42.182;24.308;2022-08-19T08:37:42;4.40;;;3.65;;
27839;SDS011;15207;42.182;24.308;2022-08-19T08:40:16;10.40;;;4.05;;
27839;SDS011;15207;42.182;24.308;2022-08-19T08:45:54;7.60;;;3.40;;
27839;SDS011;15207;42.182;24.308;2022-08-19T08:51:20;7.00;;;4.20;;
27839;SDS011;15207;42.182;24.308;2022-08-19T08:53:50;9.40;;;3.60;;
27839;SDS011;15207;42.182;24.308;2022-08-19T08:56:17;7.60;;;3.90;;
27839;SDS011;15207;42.182;24.308;2022-08-19T09:01:10;6.60;;;3.90;;
27839;SDS011;15207;42.182;24.308;2022-08-19T09:03:36;5.05;;;3.40;;
27839;SDS011;15207;42.182;24.308;2022-08-19T09:06:13;7.13;;;3.70;;
27839;SDS011;15207;42.182;24.308;2022-08-19T09:09:03;6.20;;;3.90;;
27839;SDS011;15207;42.182;24.308;2022-08-19T09:14:45;9.80;;;4.10;;
27839;SDS011;15207;42.182;24.308;2022-08-19T09:17:33;5.90;;;3.90;;
27839;SDS011;15207;42.182;24.308;2022-08-19T09:20:06;6.80;;;3.90;;
27839;SDS011;15207;42.182;24.308;2022-08-19T09:22:36;9.05;;;3.70;;
27839;SDS011;15207;42.182;24.308;2022-08-19T09:25:03;6.25;;;3.50;;
27839;SDS011;15207;42.182;24.308;2022-08-19T09:27:30;6.70;;;3.63;;
27839;SDS011;15207;42.182;24.308;2022-08-19T09:29:57;4.60;;;3.50;;
27839;SDS011;15207;42.182;24.308;2022-08-19T09:32:23;6.93;;;3.73;;
27839;SDS011;15207;42.182;24.308;2022-08-19T09:34:51;5.90;;;3.70;;
27839;SDS011;15207;42.182;24.308;2022-08-19T09:37:19;5.70;;;3.65;;
27839;SDS011;15207;42.182;24.308;2022-08-19T09:39:46;7.40;;;4.00;;
27839;SDS011;15207;42.182;24.308;2022-08-19T09:42:11;6.30;;;4.00;;
27839;SDS011;15207;42.182;24.308;2022-08-19T09:44:39;6.00;;;3.70;;
27839;SDS011;15207;42.182;24.308;2022-08-19T09:47:06;6.00;;;3.65;;
27839;SDS011;15207;42.182;24.308;2022-08-19T09:49:32;8.07;;;3.60;;
27839;SDS011;15207;42.182;24.308;2022-08-19T09:51:58;5.60;;;3.40;;
27839;SDS011;15207;42.182;24.308;2022-08-19T09:54:24;5.90;;;3.70;;
27839;SDS011;15207;42.182;24.308;2022-08-19T09:56:51;6.40;;;3.60;;
27839;SDS011;15207;42.182;24.308;2022-08-19T09:59:20;6.80;;;3.40;;
27839;SDS011;15207;42.182;24.308;2022-08-19T10:01:46;4.65;;;3.60;;
27839;SDS011;15207;42.182;24.308;2022-08-19T10:04:12;4.33;;;3.27;;
27839;SDS011;15207;42.182;24.308;2022-08-19T10:06:38;8.00;;;3.50;;
27839;SDS011;15207;42.182;24.308;2022-08-19T10:11:34;10.10;;;4.05;;
27839;SDS011;15207;42.182;24.308;2022-08-19T10:14:02;4.80;;;3.70;;
27839;SDS011;15207;42.182;24.308;2022-08-19T10:16:30;7.20;;;4.20;;
27839;SDS011;15207;42.182;24.308;2022-08-19T10:18:56;7.85;;;3.45;;
27839;SDS011;15207;42.182;24.308;2022-08-19T10:21:24;5.70;;;3.50;;
27839;SDS011;15207;42.182;24.308;2022-08-19T10:23:55;10.15;;;3.70;;
27839;SDS011;15207;42.182;24.308;2022-08-19T10:26:26;6.53;;;3.10;;
27839;SDS011;15207;42.182;24.308;2022-08-19T10:28:53;9.05;;;3.90;;
27839;SDS011;15207;42.182;24.308;2022-08-19T10:31:25;5.25;;;3.30;;
27839;SDS011;15207;42.182;24.308;2022-08-19T10:33:55;6.70;;;3.80;;
27839;SDS011;15207;42.182;24.308;2022-08-19T10:36:29;7.75;;;4.10;;
27839;SDS011;15207;42.182;24.308;2022-08-19T10:38:57;8.90;;;3.80;;
27839;SDS011;15207;42.182;24.308;2022-08-19T10:41:31;4.40;;;3.40;;
27839;SDS011;15207;42.182;24.308;2022-08-19T10:44:00;12.60;;;4.00;;
27839;SDS011;15207;42.182;24.308;2022-08-19T10:46:27;4.00;;;3.20;;
27839;SDS011;15207;42.182;24.308;2022-08-19T10:48:57;6.20;;;3.50;;
27839;SDS011;15207;42.182;24.308;2022-08-19T10:51:23;13.65;;;3.75;;
27839;SDS011;15207;42.182;24.308;2022-08-19T10:54:08;6.40;;;3.80;;
27839;SDS011;15207;42.182;24.308;2022-08-19T10:56:34;5.25;;;3.30;;
27839;SDS011;15207;42.182;24.308;2022-08-19T10:59:27;3.90;;;3.50;;
27839;SDS011;15207;42.182;24.308;2022-08-19T11:01:54;9.35;;;3.53;;
27839;SDS011;15207;42.182;24.308;2022-08-19T11:04:24;10.40;;;3.47;;
27839;SDS011;15207;42.182;24.308;2022-08-19T11:06:49;9.70;;;3.55;;
27839;SDS011;15207;42.182;24.308;2022-08-19T11:09:19;4.85;;;3.30;;
27839;SDS011;15207;42.182;24.308;2022-08-19T11:11:49;8.00;;;3.70;;
27839;SDS011;15207;42.182;24.308;2022-08-19T11:14:16;7.30;;;3.30;;
27839;SDS011;15207;42.182;24.308;2022-08-19T11:16:46;7.28;;;2.95;;
27839;SDS011;15207;42.182;24.308;2022-08-19T11:19:13;9.37;;;3.07;;
27839;SDS011;15207;42.182;24.308;2022-08-19T11:21:42;6.75;;;3.50;;
27839;SDS011;15207;42.182;24.308;2022-08-19T11:24:11;4.80;;;3.00;;
27839;SDS011;15207;42.182;24.308;2022-08-19T11:26:39;4.40;;;2.90;;
27839;SDS011;15207;42.182;24.308;2022-08-19T11:29:06;3.40;;;2.80;;
27839;SDS011;15207;42.182;24.308;2022-08-19T11:31:36;6.55;;;3.25;;
27839;SDS011;15207;42.182;24.308;2022-08-19T11:34:05;4.37;;;2.77;;
27839;SDS011;15207;42.182;24.308;2022-08-19T11:36:32;4.50;;;3.25;;
27839;SDS011;15207;42.182;24.308;2022-08-19T11:38:59;4.75;;;3.10;;
27839;SDS011;15207;42.182;24.308;2022-08-19T11:41:25;5.50;;;2.75;;
27839;SDS011;15207;42.182;24.308;2022-08-19T11:43:52;5.40;;;2.85;;
27839;SDS011;15207;42.182;24.308;2022-08-19T11:48:45;6.60;;;3.30;;
27839;SDS011;15207;42.182;24.308;2022-08-19T11:51:13;6.00;;;3.40;;
27839;SDS011;15207;42.182;24.308;2022-08-19T11:53:42;7.30;;;3.30;;
27839;SDS011;15207;42.182;24.308;2022-08-19T11:56:08;8.65;;;3.00;;
27839;SDS011;15207;42.182;24.308;2022-08-19T11:58:35;5.90;;;3.50;;
27839;SDS011;15207;42.182;24.308;2022-08-19T12:01:04;7.95;;;3.50;;
27839;SDS011;15207;42.182;24.308;2022-08-19T12:05:58;7.30;;;3.50;;
27839;SDS011;15207;42.182;24.308;2022-08-19T12:08:28;9.10;;;3.10;;
27839;SDS011;15207;42.182;24.308;2022-08-19T12:10:54;9.00;;;3.60;;
27839;SDS011;15207;42.182;24.308;2022-08-19T12:13:19;9.40;;;3.30;;
27839;SDS011;15207;42.182;24.308;2022-08-19T12:15:46;7.60;;;3.40;;
27839;SDS011;15207;42.182;24.308;2022-08-19T12:18:12;9.25;;;3.40;;
27839;SDS011;15207;42.182;24.308;2022-08-19T12:20:41;7.80;;;3.40;;
27839;SDS011;15207;42.182;24.308;2022-08-19T12:23:08;5.10;;;3.25;;
27839;SDS011;15207;42.182;24.308;2022-08-19T12:25:44;6.75;;;3.40;;
27839;SDS011;15207;42.182;24.308;2022-08-19T12:28:18;5.55;;;3.55;;
27839;SDS011;15207;42.182;24.308;2022-08-19T12:30:46;5.10;;;3.20;;
27839;SDS011;15207;42.182;24.308;2022-08-19T12:33:12;5.10;;;3.40;;
27839;SDS011;15207;42.182;24.308;2022-08-19T12:35:42;8.40;;;3.00;;
27839;SDS011;15207;42.182;24.308;2022-08-19T12:38:09;8.00;;;3.60;;
27839;SDS011;15207;42.182;24.308;2022-08-19T12:40:36;7.30;;;2.95;;
27839;SDS011;15207;42.182;24.308;2022-08-19T12:43:02;6.60;;;3.60;;
27839;SDS011;15207;42.182;24.308;2022-08-19T12:45:28;8.95;;;3.25;;
27839;SDS011;15207;42.182;24.308;2022-08-19T12:47:54;10.70;;;3.85;;
27839;SDS011;15207;42.182;24.308;2022-08-19T12:50:19;11.85;;;3.65;;
27839;SDS011;15207;42.182;24.308;2022-08-19T12:52:46;10.50;;;3.65;;
27839;SDS011;15207;42.182;24.308;2022-08-19T12:55:13;6.70;;;3.35;;
27839;SDS011;15207;42.182;24.308;2022-08-19T12:57:39;3.80;;;3.15;;
27839;SDS011;15207;42.182;24.308;2022-08-19T13:00:12;4.80;;;3.00;;
27839;SDS011;15207;42.182;24.308;2022-08-19T13:02:41;4.85;;;3.35;;
27839;SDS011;15207;42.182;24.308;2022-08-19T13:05:10;6.45;;;3.30;;
27839;SDS011;15207;42.182;24.308;2022-08-19T13:07:38;13.90;;;3.80;;
27839;SDS011;15207;42.182;24.308;2022-08-19T13:10:08;6.70;;;3.50;;
27839;SDS011;15207;42.182;24.308;2022-08-19T13:12:36;5.90;;;2.90;;
27839;SDS011;15207;42.182;24.308;2022-08-19T13:15:02;4.30;;;3.30;;
27839;SDS011;15207;42.182;24.308;2022-08-19T13:17:28;6.10;;;3.20;;
27839;SDS011;15207;42.182;24.308;2022-08-19T13:19:54;6.00;;;3.60;;
27839;SDS011;15207;42.182;24.308;2022-08-19T13:22:20;6.50;;;3.80;;
27839;SDS011;15207;42.182;24.308;2022-08-19T13:24:45;9.40;;;3.70;;
27839;SDS011;15207;42.182;24.308;2022-08-19T13:27:11;11.90;;;4.65;;
27839;SDS011;15207;42.182;24.308;2022-08-19T13:29:39;9.90;;;3.85;;
27839;SDS011;15207;42.182;24.308;2022-08-19T13:32:24;5.05;;;3.95;;
27839;SDS011;15207;42.182;24.308;2022-08-19T13:35:08;30.85;;;4.65;;
27839;SDS011;15207;42.182;24.308;2022-08-19T13:37:34;7.80;;;3.60;;
27839;SDS011;15207;42.182;24.308;2022-08-19T13:42:39;10.20;;;3.30;;
27839;SDS011;15207;42.182;24.308;2022-08-19T13:45:05;8.48;;;3.65;;
27839;SDS011;15207;42.182;24.308;2022-08-19T13:47:33;10.80;;;3.70;;
27839;SDS011;15207;42.182;24.308;2022-08-19T13:50:02;8.05;;;3.90;;
27839;SDS011;15207;42.182;24.308;2022-08-19T13:52:29;5.60;;;3.80;;
27839;SDS011;15207;42.182;24.308;2022-08-19T13:54:55;6.10;;;3.70;;
27839;SDS011;15207;42.182;24.308;2022-08-19T13:57:21;7.05;;;3.85;;
27839;SDS011;15207;42.182;24.308;2022-08-19T13:59:47;8.00;;;4.10;;
27839;SDS011;15207;42.182;24.308;2022-08-19T14:02:12;13.10;;;4.00;;
27839;SDS011;15207;42.182;24.308;2022-08-19T14:04:38;5.90;;;3.65;;
27839;SDS011;15207;42.182;24.308;2022-08-19T14:07:04;7.50;;;3.60;;
27839;SDS011;15207;42.182;24.308;2022-08-19T14:09:30;6.15;;;3.80;;
27839;SDS011;15207;42.182;24.308;2022-08-19T14:11:55;7.40;;;4.33;;
27839;SDS011;15207;42.182;24.308;2022-08-19T14:14:21;6.30;;;3.90;;
27839;SDS011;15207;42.182;24.308;2022-08-19T14:16:47;9.00;;;3.80;;
27839;SDS011;15207;42.182;24.308;2022-08-19T14:19:13;8.00;;;4.20;;
27839;SDS011;15207;42.182;24.308;2022-08-19T14:21:39;7.90;;;3.95;;
27839;SDS011;15207;42.182;24.308;2022-08-19T14:24:06;11.87;;;3.60;;
27839;SDS011;15207;42.182;24.308;2022-08-19T14:26:32;6.90;;;4.30;;
27839;SDS011;15207;42.182;24.308;2022-08-19T14:28:58;11.60;;;4.40;;
27839;SDS011;15207;42.182;24.308;2022-08-19T14:31:24;11.25;;;4.00;;
27839;SDS011;15207;42.182;24.308;2022-08-19T14:33:50;6.55;;;3.75;;
27839;SDS011;15207;42.182;24.308;2022-08-19T14:36:17;5.50;;;3.60;;
27839;SDS011;15207;42.182;24.308;2022-08-19T14:38:43;5.30;;;3.60;;
27839;SDS011;15207;42.182;24.308;2022-08-19T14:41:16;5.85;;;3.75;;
27839;SDS011;15207;42.182;24.308;2022-08-19T14:43:47;7.00;;;3.90;;
27839;SDS011;15207;42.182;24.308;2022-08-19T14:46:15;6.60;;;3.70;;
27839;SDS011;15207;42.182;24.308;2022-08-19T14:48:44;12.25;;;4.00;;
27839;SDS011;15207;42.182;24.308;2022-08-19T14:51:10;7.75;;;3.80;;
27839;SDS011;15207;42.182;24.308;2022-08-19T14:53:35;7.55;;;3.70;;
27839;SDS011;15207;42.182;24.308;2022-08-19T14:56:01;7.40;;;4.35;;
27839;SDS011;15207;42.182;24.308;2022-08-19T14:58:32;8.00;;;3.90;;
27839;SDS011;15207;42.182;24.308;2022-08-19T15:00:57;8.52;;;3.83;;
27839;SDS011;15207;42.182;24.308;2022-08-19T15:03:28;8.10;;;3.70;;
27839;SDS011;15207;42.182;24.308;2022-08-19T15:05:54;9.60;;;4.75;;
27839;SDS011;15207;42.182;24.308;2022-08-19T15:08:22;6.85;;;4.20;;
27839;SDS011;15207;42.182;24.308;2022-08-19T15:10:50;4.30;;;3.80;;
27839;SDS011;15207;42.182;24.308;2022-08-19T15:13:16;7.10;;;3.63;;
27839;SDS011;15207;42.182;24.308;2022-08-19T15:15:41;6.10;;;4.30;;
27839;SDS011;15207;42.182;24.308;2022-08-19T15:18:07;7.95;;;4.20;;
27839;SDS011;15207;42.182;24.308;2022-08-19T15:20:34;12.20;;;4.70;;
27839;SDS011;15207;42.182;24.308;2022-08-19T15:23:00;7.00;;;4.40;;
27839;SDS011;15207;42.182;24.308;2022-08-19T15:25:25;5.10;;;4.05;;
27839;SDS011;15207;42.182;24.308;2022-08-19T15:27:52;7.55;;;4.20;;
27839;SDS011;15207;42.182;24.308;2022-08-19T15:30:21;6.40;;;4.20;;
27839;SDS011;15207;42.182;24.308;2022-08-19T15:32:50;6.20;;;4.00;;
27839;SDS011;15207;42.182;24.308;2022-08-19T15:35:17;8.20;;;4.20;;
27839;SDS011;15207;42.182;24.308;2022-08-19T15:37:44;8.00;;;4.30;;
27839;SDS011;15207;42.182;24.308;2022-08-19T15:40:13;10.50;;;4.20;;
27839;SDS011;15207;42.182;24.308;2022-08-19T15:42:39;6.63;;;3.90;;
27839;SDS011;15207;42.182;24.308;2022-08-19T15:45:07;12.48;;;4.28;;
27839;SDS011;15207;42.182;24.308;2022-08-19T15:47:34;11.95;;;4.20;;
27839;SDS011;15207;42.182;24.308;2022-08-19T15:50:10;6.45;;;4.40;;